FEW weather

Francis E Warren Air Force Base
Cheyenne, Wyoming, United States

Public forecast

Using degrees Fahrenheit for public forecast. Weather courtesy of forecast.io.

Closest aviation weather report (METAR) to Francis E Warren Air Force Base

Closest report is Cheyenne Regional Jerry Olson Field, 2.8 nm (5.2 km) ENE. Retrieved 2019/10/14 18:53 UTC (1 hour ago):

KCYS 141853Z 26020G27KT 10SM CLR 19/M16 A2995 RMK AO2 PK WND 27032/1811 SLP088 T01941161

Closest aviation forecast (TAF) to Francis E Warren Air Force Base

Closest forecast is Cheyenne Regional Jerry Olson Field, 2.8 nm (5.2 km) ENE. Retrieved 2019/10/14 18:22 UTC (2 hours ago):

TAF KCYS 141720Z 1418/1518 28015G25KT P6SM SKC FM150100 30010KT P6SM SKC FM150400 34009KT P6SM SKC